sensor_id;sensor_type;location;lat;lon;timestamp;P1;durP1;ratioP1;P2;durP2;ratioP2
55082;SDS011;40978;52.850;6.506;2024-02-04T00:02:19;0.03;;;0.03;;
55082;SDS011;40978;52.850;6.506;2024-02-04T00:04:47;1.77;;;0.63;;
55082;SDS011;40978;52.850;6.506;2024-02-04T00:07:13;1.63;;;0.60;;
55082;SDS011;40978;52.850;6.506;2024-02-04T00:09:39;3.10;;;0.82;;
55082;SDS011;40978;52.850;6.506;2024-02-04T00:12:05;2.25;;;0.57;;
55082;SDS011;40978;52.850;6.506;2024-02-04T00:14:31;2.60;;;0.40;;
55082;SDS011;40978;52.850;6.506;2024-02-04T00:16:57;1.58;;;0.38;;
55082;SDS011;40978;52.850;6.506;2024-02-04T00:19:24;2.55;;;1.02;;
55082;SDS011;40978;52.850;6.506;2024-02-04T00:21:49;2.88;;;0.45;;
55082;SDS011;40978;52.850;6.506;2024-02-04T00:24:15;1.90;;;0.57;;
55082;SDS011;40978;52.850;6.506;2024-02-04T00:26:43;0.57;;;0.20;;
55082;SDS011;40978;52.850;6.506;2024-02-04T00:29:09;2.13;;;0.38;;
55082;SDS011;40978;52.850;6.506;2024-02-04T00:31:35;1.92;;;0.20;;
55082;SDS011;40978;52.850;6.506;2024-02-04T00:34:00;1.15;;;0.38;;
55082;SDS011;40978;52.850;6.506;2024-02-04T00:36:26;0.85;;;0.25;;
55082;SDS011;40978;52.850;6.506;2024-02-04T00:38:52;0.45;;;0.10;;
55082;SDS011;40978;52.850;6.506;2024-02-04T00:41:18;0.25;;;0.20;;
55082;SDS011;40978;52.850;6.506;2024-02-04T00:43:43;5.05;;;0.40;;
55082;SDS011;40978;52.850;6.506;2024-02-04T00:46:09;0.45;;;0.40;;
55082;SDS011;40978;52.850;6.506;2024-02-04T00:48:36;1.30;;;0.65;;
55082;SDS011;40978;52.850;6.506;2024-02-04T00:51:02;1.40;;;0.40;;
55082;SDS011;40978;52.850;6.506;2024-02-04T00:53:28;1.38;;;0.20;;
55082;SDS011;40978;52.850;6.506;2024-02-04T00:55:59;0.95;;;0.25;;
55082;SDS011;40978;52.850;6.506;2024-02-04T00:58:28;2.30;;;0.38;;
55082;SDS011;40978;52.850;6.506;2024-02-04T01:00:54;1.40;;;0.20;;
55082;SDS011;40978;52.850;6.506;2024-02-04T01:03:20;6.63;;;0.77;;
55082;SDS011;40978;52.850;6.506;2024-02-04T01:05:46;1.95;;;0.65;;
55082;SDS011;40978;52.850;6.506;2024-02-04T01:08:11;1.27;;;0.30;;
55082;SDS011;40978;52.850;6.506;2024-02-04T01:10:37;0.88;;;0.43;;
55082;SDS011;40978;52.850;6.506;2024-02-04T01:13:03;1.85;;;0.50;;
55082;SDS011;40978;52.850;6.506;2024-02-04T01:15:29;1.92;;;0.57;;
55082;SDS011;40978;52.850;6.506;2024-02-04T01:17:55;0.98;;;0.25;;
55082;SDS011;40978;52.850;6.506;2024-02-04T01:20:21;0.30;;;0.22;;
55082;SDS011;40978;52.850;6.506;2024-02-04T01:22:46;0.38;;;0.30;;
55082;SDS011;40978;52.850;6.506;2024-02-04T01:25:12;0.13;;;0.10;;
55082;SDS011;40978;52.850;6.506;2024-02-04T01:27:38;0.25;;;0.10;;
55082;SDS011;40978;52.850;6.506;2024-02-04T01:30:04;0.28;;;0.20;;
55082;SDS011;40978;52.850;6.506;2024-02-04T01:32:30;2.45;;;0.40;;
55082;SDS011;40978;52.850;6.506;2024-02-04T01:34:56;1.55;;;0.43;;
55082;SDS011;40978;52.850;6.506;2024-02-04T01:37:22;1.08;;;0.20;;
55082;SDS011;40978;52.850;6.506;2024-02-04T01:39:48;9.30;;;0.65;;
55082;SDS011;40978;52.850;6.506;2024-02-04T01:42:14;0.20;;;0.10;;
55082;SDS011;40978;52.850;6.506;2024-02-04T01:44:40;3.83;;;0.30;;
55082;SDS011;40978;52.850;6.506;2024-02-04T01:47:05;0.43;;;0.20;;
55082;SDS011;40978;52.850;6.506;2024-02-04T01:49:31;0.70;;;0.52;;
55082;SDS011;40978;52.850;6.506;2024-02-04T01:51:57;4.47;;;0.68;;
55082;SDS011;40978;52.850;6.506;2024-02-04T01:54:23;1.38;;;0.30;;
55082;SDS011;40978;52.850;6.506;2024-02-04T01:56:50;3.35;;;0.75;;
55082;SDS011;40978;52.850;6.506;2024-02-04T01:59:22;0.90;;;0.32;;
55082;SDS011;40978;52.850;6.506;2024-02-04T02:01:55;3.42;;;0.65;;
55082;SDS011;40978;52.850;6.506;2024-02-04T02:04:24;8.77;;;0.30;;
55082;SDS011;40978;52.850;6.506;2024-02-04T02:06:50;0.35;;;0.10;;
55082;SDS011;40978;52.850;6.506;2024-02-04T02:09:18;0.52;;;0.05;;
55082;SDS011;40978;52.850;6.506;2024-02-04T02:11:45;0.25;;;0.25;;
55082;SDS011;40978;52.850;6.506;2024-02-04T02:14:23;4.97;;;0.20;;
55082;SDS011;40978;52.850;6.506;2024-02-04T02:16:52;2.80;;;1.02;;
55082;SDS011;40978;52.850;6.506;2024-02-04T02:19:28;2.70;;;0.55;;
55082;SDS011;40978;52.850;6.506;2024-02-04T02:22:11;4.25;;;0.88;;
55082;SDS011;40978;52.850;6.506;2024-02-04T02:24:59;1.02;;;0.40;;
55082;SDS011;40978;52.850;6.506;2024-02-04T02:27:27;1.50;;;0.25;;
55082;SDS011;40978;52.850;6.506;2024-02-04T02:29:53;2.05;;;0.57;;
55082;SDS011;40978;52.850;6.506;2024-02-04T02:32:18;0.20;;;0.20;;
55082;SDS011;40978;52.850;6.506;2024-02-04T02:34:45;1.23;;;0.52;;
55082;SDS011;40978;52.850;6.506;2024-02-04T02:40:01;0.63;;;0.38;;
55082;SDS011;40978;52.850;6.506;2024-02-04T02:42:31;0.30;;;0.30;;
55082;SDS011;40978;52.850;6.506;2024-02-04T02:44:58;1.92;;;0.60;;
55082;SDS011;40978;52.850;6.506;2024-02-04T02:47:25;0.93;;;0.60;;
55082;SDS011;40978;52.850;6.506;2024-02-04T02:49:54;2.72;;;0.50;;
55082;SDS011;40978;52.850;6.506;2024-02-04T02:52:20;1.48;;;1.00;;
55082;SDS011;40978;52.850;6.506;2024-02-04T02:54:46;2.15;;;0.50;;
55082;SDS011;40978;52.850;6.506;2024-02-04T02:57:12;0.30;;;0.30;;
55082;SDS011;40978;52.850;6.506;2024-02-04T02:59:38;5.55;;;1.60;;
55082;SDS011;40978;52.850;6.506;2024-02-04T03:02:05;1.08;;;0.52;;
55082;SDS011;40978;52.850;6.506;2024-02-04T03:04:30;3.13;;;1.05;;
55082;SDS011;40978;52.850;6.506;2024-02-04T03:06:56;6.40;;;0.93;;
55082;SDS011;40978;52.850;6.506;2024-02-04T03:09:22;2.67;;;0.65;;
55082;SDS011;40978;52.850;6.506;2024-02-04T03:11:47;0.65;;;0.45;;
55082;SDS011;40978;52.850;6.506;2024-02-04T03:14:16;7.45;;;0.43;;
55082;SDS011;40978;52.850;6.506;2024-02-04T03:16:44;2.60;;;0.77;;
55082;SDS011;40978;52.850;6.506;2024-02-04T03:19:10;1.83;;;0.30;;
55082;SDS011;40978;52.850;6.506;2024-02-04T03:21:36;5.05;;;1.10;;
55082;SDS011;40978;52.850;6.506;2024-02-04T03:24:01;5.03;;;0.50;;
55082;SDS011;40978;52.850;6.506;2024-02-04T03:26:27;1.88;;;0.50;;
55082;SDS011;40978;52.850;6.506;2024-02-04T03:28:53;0.82;;;0.17;;
55082;SDS011;40978;52.850;6.506;2024-02-04T03:31:19;0.60;;;0.30;;
55082;SDS011;40978;52.850;6.506;2024-02-04T03:33:46;1.48;;;0.30;;
55082;SDS011;40978;52.850;6.506;2024-02-04T03:36:12;1.27;;;0.43;;
55082;SDS011;40978;52.850;6.506;2024-02-04T03:38:39;0.68;;;0.32;;
55082;SDS011;40978;52.850;6.506;2024-02-04T03:41:05;4.38;;;0.85;;
55082;SDS011;40978;52.850;6.506;2024-02-04T03:43:30;2.72;;;0.82;;
55082;SDS011;40978;52.850;6.506;2024-02-04T03:45:56;0.13;;;0.10;;
55082;SDS011;40978;52.850;6.506;2024-02-04T03:48:22;2.13;;;0.60;;
55082;SDS011;40978;52.850;6.506;2024-02-04T03:50:48;3.88;;;0.50;;
55082;SDS011;40978;52.850;6.506;2024-02-04T03:53:13;0.88;;;0.22;;
55082;SDS011;40978;52.850;6.506;2024-02-04T03:55:39;0.25;;;0.10;;
55082;SDS011;40978;52.850;6.506;2024-02-04T03:58:05;2.78;;;0.28;;
55082;SDS011;40978;52.850;6.506;2024-02-04T04:00:30;0.32;;;0.10;;
55082;SDS011;40978;52.850;6.506;2024-02-04T04:02:56;0.35;;;0.20;;
55082;SDS011;40978;52.850;6.506;2024-02-04T04:05:22;0.63;;;0.20;;
55082;SDS011;40978;52.850;6.506;2024-02-04T04:07:48;3.70;;;0.32;;
55082;SDS011;40978;52.850;6.506;2024-02-04T04:10:13;0.47;;;0.45;;
55082;SDS011;40978;52.850;6.506;2024-02-04T04:12:39;1.65;;;0.32;;
55082;SDS011;40978;52.850;6.506;2024-02-04T04:15:05;0.43;;;0.20;;
55082;SDS011;40978;52.850;6.506;2024-02-04T04:17:31;0.08;;;0.08;;
55082;SDS011;40978;52.850;6.506;2024-02-04T04:19:56;0.68;;;0.20;;
55082;SDS011;40978;52.850;6.506;2024-02-04T04:22:22;1.20;;;0.60;;
55082;SDS011;40978;52.850;6.506;2024-02-04T04:24:48;0.52;;;0.20;;
55082;SDS011;40978;52.850;6.506;2024-02-04T04:27:14;0.10;;;0.10;;
55082;SDS011;40978;52.850;6.506;2024-02-04T04:29:39;3.05;;;0.20;;
55082;SDS011;40978;52.850;6.506;2024-02-04T04:32:05;3.30;;;0.22;;
55082;SDS011;40978;52.850;6.506;2024-02-04T04:34:31;5.95;;;0.50;;
55082;SDS011;40978;52.850;6.506;2024-02-04T04:36:57;0.25;;;0.17;;
55082;SDS011;40978;52.850;6.506;2024-02-04T04:39:22;1.33;;;0.20;;
55082;SDS011;40978;52.850;6.506;2024-02-04T04:41:48;0.45;;;0.00;;
55082;SDS011;40978;52.850;6.506;2024-02-04T04:44:14;0.60;;;0.30;;
55082;SDS011;40978;52.850;6.506;2024-02-04T04:46:39;2.85;;;0.25;;
55082;SDS011;40978;52.850;6.506;2024-02-04T04:49:05;1.73;;;0.30;;
55082;SDS011;40978;52.850;6.506;2024-02-04T04:51:31;2.17;;;0.60;;
55082;SDS011;40978;52.850;6.506;2024-02-04T04:53:57;2.10;;;0.52;;
55082;SDS011;40978;52.850;6.506;2024-02-04T04:56:23;2.83;;;0.20;;
55082;SDS011;40978;52.850;6.506;2024-02-04T04:58:49;0.30;;;0.10;;
55082;SDS011;40978;52.850;6.506;2024-02-04T05:01:15;2.17;;;0.25;;
55082;SDS011;40978;52.850;6.506;2024-02-04T05:03:42;0.85;;;0.10;;
55082;SDS011;40978;52.850;6.506;2024-02-04T05:06:07;1.17;;;0.40;;
55082;SDS011;40978;52.850;6.506;2024-02-04T05:08:33;0.20;;;0.05;;
55082;SDS011;40978;52.850;6.506;2024-02-04T05:10:59;8.50;;;0.90;;
55082;SDS011;40978;52.850;6.506;2024-02-04T05:13:24;2.97;;;0.30;;
55082;SDS011;40978;52.850;6.506;2024-02-04T05:15:50;1.30;;;0.60;;
55082;SDS011;40978;52.850;6.506;2024-02-04T05:18:16;1.00;;;0.30;;
55082;SDS011;40978;52.850;6.506;2024-02-04T05:20:41;3.20;;;0.20;;
55082;SDS011;40978;52.850;6.506;2024-02-04T05:23:08;0.68;;;0.50;;
55082;SDS011;40978;52.850;6.506;2024-02-04T05:25:34;0.52;;;0.10;;
55082;SDS011;40978;52.850;6.506;2024-02-04T05:28:00;0.55;;;0.10;;
55082;SDS011;40978;52.850;6.506;2024-02-04T05:30:26;0.52;;;0.32;;
55082;SDS011;40978;52.850;6.506;2024-02-04T05:32:51;1.80;;;0.57;;
55082;SDS011;40978;52.850;6.506;2024-02-04T05:35:17;0.95;;;0.20;;
55082;SDS011;40978;52.850;6.506;2024-02-04T05:37:43;8.82;;;0.70;;
55082;SDS011;40978;52.850;6.506;2024-02-04T05:40:08;0.80;;;0.15;;
55082;SDS011;40978;52.850;6.506;2024-02-04T05:42:34;4.10;;;0.20;;
55082;SDS011;40978;52.850;6.506;2024-02-04T05:45:02;2.28;;;0.08;;
55082;SDS011;40978;52.850;6.506;2024-02-04T05:47:28;2.17;;;0.35;;
55082;SDS011;40978;52.850;6.506;2024-02-04T05:49:54;0.17;;;0.10;;
55082;SDS011;40978;52.850;6.506;2024-02-04T05:52:20;1.27;;;0.32;;
55082;SDS011;40978;52.850;6.506;2024-02-04T05:54:45;5.55;;;0.43;;
55082;SDS011;40978;52.850;6.506;2024-02-04T05:57:11;0.80;;;0.10;;
55082;SDS011;40978;52.850;6.506;2024-02-04T05:59:37;4.30;;;0.57;;
55082;SDS011;40978;52.850;6.506;2024-02-04T06:02:04;1.30;;;0.28;;
55082;SDS011;40978;52.850;6.506;2024-02-04T06:04:29;1.65;;;0.35;;
55082;SDS011;40978;52.850;6.506;2024-02-04T06:06:55;1.50;;;0.25;;
55082;SDS011;40978;52.850;6.506;2024-02-04T06:09:21;0.32;;;0.32;;
55082;SDS011;40978;52.850;6.506;2024-02-04T06:11:47;0.40;;;0.10;;
55082;SDS011;40978;52.850;6.506;2024-02-04T06:14:12;0.25;;;0.10;;
55082;SDS011;40978;52.850;6.506;2024-02-04T06:16:38;0.77;;;0.10;;
55082;SDS011;40978;52.850;6.506;2024-02-04T06:19:04;2.08;;;0.17;;
55082;SDS011;40978;52.850;6.506;2024-02-04T06:21:30;5.05;;;0.73;;
55082;SDS011;40978;52.850;6.506;2024-02-04T06:23:56;3.60;;;0.65;;
55082;SDS011;40978;52.850;6.506;2024-02-04T06:26:22;1.67;;;0.40;;
55082;SDS011;40978;52.850;6.506;2024-02-04T06:28:47;0.63;;;0.30;;
55082;SDS011;40978;52.850;6.506;2024-02-04T06:31:15;0.35;;;0.20;;
55082;SDS011;40978;52.850;6.506;2024-02-04T06:33:41;0.30;;;0.10;;
55082;SDS011;40978;52.850;6.506;2024-02-04T06:36:10;2.00;;;0.28;;
55082;SDS011;40978;52.850;6.506;2024-02-04T06:38:36;3.65;;;0.68;;
55082;SDS011;40978;52.850;6.506;2024-02-04T06:41:02;5.22;;;0.30;;
55082;SDS011;40978;52.850;6.506;2024-02-04T06:43:28;3.25;;;0.93;;
55082;SDS011;40978;52.850;6.506;2024-02-04T06:45:53;0.30;;;0.10;;
55082;SDS011;40978;52.850;6.506;2024-02-04T06:48:19;0.20;;;0.15;;
55082;SDS011;40978;52.850;6.506;2024-02-04T06:50:45;3.40;;;0.55;;
55082;SDS011;40978;52.850;6.506;2024-02-04T06:53:13;2.90;;;0.70;;
55082;SDS011;40978;52.850;6.506;2024-02-04T06:55:39;4.15;;;1.17;;
55082;SDS011;40978;52.850;6.506;2024-02-04T06:58:05;5.03;;;0.52;;
55082;SDS011;40978;52.850;6.506;2024-02-04T07:00:30;5.13;;;0.50;;
55082;SDS011;40978;52.850;6.506;2024-02-04T07:02:56;0.77;;;0.40;;
55082;SDS011;40978;52.850;6.506;2024-02-04T07:05:22;2.03;;;0.43;;
55082;SDS011;40978;52.850;6.506;2024-02-04T07:07:48;0.28;;;0.20;;
55082;SDS011;40978;52.850;6.506;2024-02-04T07:10:17;0.20;;;0.08;;
55082;SDS011;40978;52.850;6.506;2024-02-04T07:12:44;2.33;;;0.03;;
55082;SDS011;40978;52.850;6.506;2024-02-04T07:15:09;3.00;;;0.38;;
55082;SDS011;40978;52.850;6.506;2024-02-04T07:17:35;4.15;;;0.65;;
55082;SDS011;40978;52.850;6.506;2024-02-04T07:20:01;4.30;;;0.73;;
55082;SDS011;40978;52.850;6.506;2024-02-04T07:22:28;4.90;;;1.30;;
55082;SDS011;40978;52.850;6.506;2024-02-04T07:24:53;8.18;;;0.73;;
55082;SDS011;40978;52.850;6.506;2024-02-04T07:27:19;2.50;;;1.50;;
55082;SDS011;40978;52.850;6.506;2024-02-04T07:29:45;1.85;;;0.60;;
55082;SDS011;40978;52.850;6.506;2024-02-04T07:32:12;3.33;;;0.30;;
55082;SDS011;40978;52.850;6.506;2024-02-04T07:34:40;9.50;;;1.38;;
55082;SDS011;40978;52.850;6.506;2024-02-04T07:37:05;3.60;;;0.70;;
55082;SDS011;40978;52.850;6.506;2024-02-04T07:39:31;6.13;;;0.47;;
55082;SDS011;40978;52.850;6.506;2024-02-04T07:41:57;3.25;;;0.50;;
55082;SDS011;40978;52.850;6.506;2024-02-04T07:44:26;4.85;;;0.57;;
55082;SDS011;40978;52.850;6.506;2024-02-04T07:46:52;3.03;;;0.35;;
55082;SDS011;40978;52.850;6.506;2024-02-04T07:49:18;2.17;;;0.77;;
55082;SDS011;40978;52.850;6.506;2024-02-04T07:51:44;3.35;;;0.40;;
55082;SDS011;40978;52.850;6.506;2024-02-04T07:54:10;0.68;;;0.32;;
55082;SDS011;40978;52.850;6.506;2024-02-04T07:56:36;0.75;;;0.10;;
55082;SDS011;40978;52.850;6.506;2024-02-04T07:59:02;2.17;;;0.47;;
55082;SDS011;40978;52.850;6.506;2024-02-04T08:01:29;1.63;;;0.10;;
55082;SDS011;40978;52.850;6.506;2024-02-04T08:03:55;1.15;;;0.55;;
55082;SDS011;40978;52.850;6.506;2024-02-04T08:06:21;11.00;;;2.28;;
55082;SDS011;40978;52.850;6.506;2024-02-04T08:08:47;2.40;;;0.10;;
55082;SDS011;40978;52.850;6.506;2024-02-04T08:11:16;0.20;;;0.20;;
55082;SDS011;40978;52.850;6.506;2024-02-04T08:13:43;4.60;;;0.47;;
55082;SDS011;40978;52.850;6.506;2024-02-04T08:16:09;1.05;;;0.20;;
55082;SDS011;40978;52.850;6.506;2024-02-04T08:18:35;3.63;;;0.38;;
55082;SDS011;40978;52.850;6.506;2024-02-04T08:21:01;0.88;;;0.13;;
55082;SDS011;40978;52.850;6.506;2024-02-04T08:23:27;1.05;;;0.35;;
55082;SDS011;40978;52.850;6.506;2024-02-04T08:25:53;4.82;;;0.43;;
55082;SDS011;40978;52.850;6.506;2024-02-04T08:28:18;1.05;;;0.20;;
55082;SDS011;40978;52.850;6.506;2024-02-04T08:30:44;2.47;;;0.68;;
55082;SDS011;40978;52.850;6.506;2024-02-04T08:33:10;2.92;;;0.50;;
55082;SDS011;40978;52.850;6.506;2024-02-04T08:35:36;1.85;;;0.30;;
55082;SDS011;40978;52.850;6.506;2024-02-04T08:38:02;0.82;;;0.30;;
55082;SDS011;40978;52.850;6.506;2024-02-04T08:40:27;3.83;;;0.30;;
55082;SDS011;40978;52.850;6.506;2024-02-04T08:42:53;1.75;;;0.35;;
55082;SDS011;40978;52.850;6.506;2024-02-04T08:45:19;0.35;;;0.30;;
55082;SDS011;40978;52.850;6.506;2024-02-04T08:47:44;3.33;;;0.40;;
55082;SDS011;40978;52.850;6.506;2024-02-04T08:50:11;8.60;;;0.80;;
55082;SDS011;40978;52.850;6.506;2024-02-04T08:52:37;2.95;;;0.32;;
55082;SDS011;40978;52.850;6.506;2024-02-04T08:55:03;0.40;;;0.20;;
55082;SDS011;40978;52.850;6.506;2024-02-04T08:57:29;0.93;;;0.40;;
55082;SDS011;40978;52.850;6.506;2024-02-04T08:59:55;0.20;;;0.20;;
55082;SDS011;40978;52.850;6.506;2024-02-04T09:02:21;1.55;;;0.45;;
55082;SDS011;40978;52.850;6.506;2024-02-04T09:04:47;1.20;;;0.57;;
55082;SDS011;40978;52.850;6.506;2024-02-04T09:07:12;1.05;;;0.32;;
55082;SDS011;40978;52.850;6.506;2024-02-04T09:09:38;0.85;;;0.22;;
55082;SDS011;40978;52.850;6.506;2024-02-04T09:12:05;4.75;;;1.63;;
55082;SDS011;40978;52.850;6.506;2024-02-04T09:14:30;1.33;;;0.82;;
55082;SDS011;40978;52.850;6.506;2024-02-04T09:16:56;0.47;;;0.10;;
55082;SDS011;40978;52.850;6.506;2024-02-04T09:19:22;1.90;;;0.32;;
55082;SDS011;40978;52.850;6.506;2024-02-04T09:21:49;0.63;;;0.30;;
55082;SDS011;40978;52.850;6.506;2024-02-04T09:24:15;0.10;;;0.10;;
55082;SDS011;40978;52.850;6.506;2024-02-04T09:26:41;5.28;;;0.98;;
55082;SDS011;40978;52.850;6.506;2024-02-04T09:29:06;3.55;;;0.32;;
55082;SDS011;40978;52.850;6.506;2024-02-04T09:31:32;0.70;;;0.38;;
55082;SDS011;40978;52.850;6.506;2024-02-04T09:33:58;6.68;;;0.85;;
55082;SDS011;40978;52.850;6.506;2024-02-04T09:36:24;0.30;;;0.10;;
55082;SDS011;40978;52.850;6.506;2024-02-04T09:38:49;4.00;;;0.85;;
55082;SDS011;40978;52.850;6.506;2024-02-04T09:41:15;1.23;;;0.85;;
55082;SDS011;40978;52.850;6.506;2024-02-04T09:43:41;2.80;;;0.85;;
55082;SDS011;40978;52.850;6.506;2024-02-04T09:46:07;2.40;;;0.20;;
55082;SDS011;40978;52.850;6.506;2024-02-04T09:48:33;0.90;;;0.20;;
55082;SDS011;40978;52.850;6.506;2024-02-04T09:51:01;0.73;;;0.38;;
55082;SDS011;40978;52.850;6.506;2024-02-04T09:53:34;4.03;;;0.57;;
55082;SDS011;40978;52.850;6.506;2024-02-04T09:56:03;0.17;;;0.00;;
55082;SDS011;40978;52.850;6.506;2024-02-04T09:58:34;4.22;;;0.30;;
55082;SDS011;40978;52.850;6.506;2024-02-04T10:01:00;1.85;;;0.25;;
55082;SDS011;40978;52.850;6.506;2024-02-04T10:03:26;3.25;;;0.52;;
55082;SDS011;40978;52.850;6.506;2024-02-04T10:05:52;0.25;;;0.05;;
55082;SDS011;40978;52.850;6.506;2024-02-04T10:08:18;0.65;;;0.20;;
55082;SDS011;40978;52.850;6.506;2024-02-04T10:10:44;3.17;;;0.47;;
55082;SDS011;40978;52.850;6.506;2024-02-04T10:13:10;0.90;;;0.45;;
55082;SDS011;40978;52.850;6.506;2024-02-04T10:15:36;0.60;;;0.30;;
55082;SDS011;40978;52.850;6.506;2024-02-04T10:18:05;0.30;;;0.30;;
55082;SDS011;40978;52.850;6.506;2024-02-04T10:20:32;0.52;;;0.10;;
55082;SDS011;40978;52.850;6.506;2024-02-04T10:22:58;0.13;;;0.13;;
55082;SDS011;40978;52.850;6.506;2024-02-04T10:25:24;0.40;;;0.00;;
55082;SDS011;40978;52.850;6.506;2024-02-04T10:27:50;2.47;;;0.52;;
55082;SDS011;40978;52.850;6.506;2024-02-04T10:30:18;1.17;;;0.30;;
55082;SDS011;40978;52.850;6.506;2024-02-04T10:32:45;1.75;;;0.38;;
55082;SDS011;40978;52.850;6.506;2024-02-04T10:35:12;0.05;;;0.05;;
55082;SDS011;40978;52.850;6.506;2024-02-04T10:37:37;1.65;;;0.10;;
55082;SDS011;40978;52.850;6.506;2024-02-04T10:40:03;0.57;;;0.10;;
55082;SDS011;40978;52.850;6.506;2024-02-04T10:42:29;1.08;;;0.32;;
55082;SDS011;40978;52.850;6.506;2024-02-04T10:44:57;1.63;;;0.10;;
55082;SDS011;40978;52.850;6.506;2024-02-04T10:47:29;0.00;;;0.00;;
55082;SDS011;40978;52.850;6.506;2024-02-04T10:49:58;0.73;;;0.05;;
55082;SDS011;40978;52.850;6.506;2024-02-04T10:52:28;1.85;;;0.22;;
55082;SDS011;40978;52.850;6.506;2024-02-04T10:55:07;1.08;;;0.20;;
55082;SDS011;40978;52.850;6.506;2024-02-04T10:57:35;0.68;;;0.30;;
55082;SDS011;40978;52.850;6.506;2024-02-04T11:00:03;5.03;;;0.60;;
55082;SDS011;40978;52.850;6.506;2024-02-04T11:02:37;8.57;;;2.05;;
55082;SDS011;40978;52.850;6.506;2024-02-04T11:05:04;1.67;;;0.85;;
55082;SDS011;40978;52.850;6.506;2024-02-04T11:07:34;2.97;;;1.23;;
55082;SDS011;40978;52.850;6.506;2024-02-04T11:10:00;1.50;;;0.60;;
55082;SDS011;40978;52.850;6.506;2024-02-04T11:12:27;5.10;;;2.13;;
55082;SDS011;40978;52.850;6.506;2024-02-04T11:14:56;1.85;;;0.77;;
55082;SDS011;40978;52.850;6.506;2024-02-04T11:28:18;0.22;;;0.22;;
55082;SDS011;40978;52.850;6.506;2024-02-04T11:30:46;0.80;;;0.28;;
55082;SDS011;40978;52.850;6.506;2024-02-04T11:33:13;1.73;;;0.60;;
55082;SDS011;40978;52.850;6.506;2024-02-04T11:35:43;10.65;;;3.47;;
55082;SDS011;40978;52.850;6.506;2024-02-04T11:38:09;3.97;;;1.88;;
55082;SDS011;40978;52.850;6.506;2024-02-04T11:40:37;6.32;;;3.25;;
55082;SDS011;40978;52.850;6.506;2024-02-04T11:43:06;9.07;;;4.13;;
55082;SDS011;40978;52.850;6.506;2024-02-04T11:45:41;7.88;;;1.98;;
55082;SDS011;40978;52.850;6.506;2024-02-04T11:48:08;7.95;;;3.85;;
55082;SDS011;40978;52.850;6.506;2024-02-04T11:50:40;16.95;;;4.93;;
55082;SDS011;40978;52.850;6.506;2024-02-04T11:53:09;5.25;;;2.60;;
55082;SDS011;40978;52.850;6.506;2024-02-04T11:55:38;12.93;;;5.05;;
55082;SDS011;40978;52.850;6.506;2024-02-04T11:58:07;13.32;;;5.65;;
55082;SDS011;40978;52.850;6.506;2024-02-04T12:00:34;10.38;;;5.35;;
55082;SDS011;40978;52.850;6.506;2024-02-04T12:03:03;1.50;;;1.15;;
55082;SDS011;40978;52.850;6.506;2024-02-04T12:05:34;2.15;;;0.73;;
55082;SDS011;40978;52.850;6.506;2024-02-04T12:08:04;1.63;;;0.65;;
55082;SDS011;40978;52.850;6.506;2024-02-04T12:10:32;2.83;;;1.00;;
55082;SDS011;40978;52.850;6.506;2024-02-04T12:12:59;0.50;;;0.20;;
55082;SDS011;40978;52.850;6.506;2024-02-04T12:15:26;1.88;;;0.20;;
55082;SDS011;40978;52.850;6.506;2024-02-04T12:17:53;0.32;;;0.10;;
55082;SDS011;40978;52.850;6.506;2024-02-04T12:20:19;0.65;;;0.10;;
55082;SDS011;40978;52.850;6.506;2024-02-04T12:22:45;2.47;;;0.35;;
55082;SDS011;40978;52.850;6.506;2024-02-04T12:25:11;1.90;;;0.40;;
55082;SDS011;40978;52.850;6.506;2024-02-04T12:27:37;0.98;;;0.30;;
55082;SDS011;40978;52.850;6.506;2024-02-04T12:30:03;3.10;;;0.73;;
55082;SDS011;40978;52.850;6.506;2024-02-04T12:32:58;0.93;;;0.55;;
55082;SDS011;40978;52.850;6.506;2024-02-04T12:35:27;0.60;;;0.20;;
55082;SDS011;40978;52.850;6.506;2024-02-04T12:37:53;3.00;;;0.73;;
55082;SDS011;40978;52.850;6.506;2024-02-04T12:40:21;1.55;;;0.40;;
55082;SDS011;40978;52.850;6.506;2024-02-04T12:42:57;0.60;;;0.30;;
55082;SDS011;40978;52.850;6.506;2024-02-04T12:45:24;0.82;;;0.50;;
55082;SDS011;40978;52.850;6.506;2024-02-04T12:47:51;1.48;;;0.35;;
55082;SDS011;40978;52.850;6.506;2024-02-04T12:50:18;3.30;;;0.90;;
55082;SDS011;40978;52.850;6.506;2024-02-04T12:52:49;0.68;;;0.30;;
55082;SDS011;40978;52.850;6.506;2024-02-04T12:55:27;1.05;;;0.80;;
55082;SDS011;40978;52.850;6.506;2024-02-04T12:58:07;6.45;;;0.60;;
55082;SDS011;40978;52.850;6.506;2024-02-04T13:00:34;2.28;;;1.05;;
55082;SDS011;40978;52.850;6.506;2024-02-04T13:03:02;0.93;;;0.45;;
55082;SDS011;40978;52.850;6.506;2024-02-04T13:05:28;4.90;;;1.02;;
55082;SDS011;40978;52.850;6.506;2024-02-04T13:07:56;0.88;;;0.52;;
55082;SDS011;40978;52.850;6.506;2024-02-04T13:10:25;0.28;;;0.25;;
55082;SDS011;40978;52.850;6.506;2024-02-04T13:12:58;1.17;;;0.32;;
55082;SDS011;40978;52.850;6.506;2024-02-04T13:15:32;4.07;;;0.60;;
55082;SDS011;40978;52.850;6.506;2024-02-04T13:18:05;1.30;;;0.40;;
55082;SDS011;40978;52.850;6.506;2024-02-04T13:20:31;0.17;;;0.10;;
55082;SDS011;40978;52.850;6.506;2024-02-04T13:22:57;0.43;;;0.20;;
55082;SDS011;40978;52.850;6.506;2024-02-04T13:25:25;0.20;;;0.00;;
55082;SDS011;40978;52.850;6.506;2024-02-04T13:27:51;0.20;;;0.10;;
55082;SDS011;40978;52.850;6.506;2024-02-04T13:30:17;0.38;;;0.00;;
55082;SDS011;40978;52.850;6.506;2024-02-04T13:32:44;0.63;;;0.20;;
55082;SDS011;40978;52.850;6.506;2024-02-04T13:35:10;5.38;;;0.52;;
55082;SDS011;40978;52.850;6.506;2024-02-04T13:37:40;1.75;;;0.30;;
55082;SDS011;40978;52.850;6.506;2024-02-04T13:40:07;1.73;;;0.20;;
55082;SDS011;40978;52.850;6.506;2024-02-04T13:42:35;0.00;;;0.00;;
55082;SDS011;40978;52.850;6.506;2024-02-04T13:45:01;0.00;;;0.00;;
55082;SDS011;40978;52.850;6.506;2024-02-04T13:47:28;4.78;;;0.50;;
55082;SDS011;40978;52.850;6.506;2024-02-04T13:49:54;0.00;;;0.00;;
55082;SDS011;40978;52.850;6.506;2024-02-04T13:52:21;0.60;;;0.00;;
55082;SDS011;40978;52.850;6.506;2024-02-04T13:54:47;9.07;;;0.38;;
55082;SDS011;40978;52.850;6.506;2024-02-04T13:57:13;0.20;;;0.10;;
55082;SDS011;40978;52.850;6.506;2024-02-04T13:59:39;0.15;;;0.10;;
55082;SDS011;40978;52.850;6.506;2024-02-04T14:02:04;0.73;;;0.00;;
55082;SDS011;40978;52.850;6.506;2024-02-04T14:04:33;5.38;;;0.30;;
55082;SDS011;40978;52.850;6.506;2024-02-04T14:06:59;3.53;;;0.20;;
55082;SDS011;40978;52.850;6.506;2024-02-04T14:09:24;1.00;;;0.47;;
55082;SDS011;40978;52.850;6.506;2024-02-04T14:11:51;0.10;;;0.10;;
55082;SDS011;40978;52.850;6.506;2024-02-04T14:14:17;0.13;;;0.00;;
55082;SDS011;40978;52.850;6.506;2024-02-04T14:16:42;1.33;;;0.38;;
55082;SDS011;40978;52.850;6.506;2024-02-04T14:19:08;0.25;;;0.00;;
55082;SDS011;40978;52.850;6.506;2024-02-04T14:21:34;0.00;;;0.00;;
55082;SDS011;40978;52.850;6.506;2024-02-04T14:24:00;1.48;;;0.10;;
55082;SDS011;40978;52.850;6.506;2024-02-04T14:26:26;0.35;;;0.00;;
55082;SDS011;40978;52.850;6.506;2024-02-04T14:28:51;0.40;;;0.40;;
55082;SDS011;40978;52.850;6.506;2024-02-04T14:31:17;0.55;;;0.30;;
55082;SDS011;40978;52.850;6.506;2024-02-04T14:33:43;1.55;;;0.45;;
55082;SDS011;40978;52.850;6.506;2024-02-04T14:36:09;0.00;;;0.00;;
55082;SDS011;40978;52.850;6.506;2024-02-04T14:38:35;0.82;;;0.43;;
55082;SDS011;40978;52.850;6.506;2024-02-04T14:41:03;0.10;;;0.10;;
55082;SDS011;40978;52.850;6.506;2024-02-04T14:43:29;1.40;;;0.30;;
55082;SDS011;40978;52.850;6.506;2024-02-04T14:45:55;1.13;;;0.38;;
55082;SDS011;40978;52.850;6.506;2024-02-04T14:48:21;0.00;;;0.00;;
55082;SDS011;40978;52.850;6.506;2024-02-04T14:50:47;0.20;;;0.10;;
55082;SDS011;40978;52.850;6.506;2024-02-04T14:53:13;0.10;;;0.10;;
55082;SDS011;40978;52.850;6.506;2024-02-04T14:55:39;0.15;;;0.10;;
55082;SDS011;40978;52.850;6.506;2024-02-04T14:58:05;0.30;;;0.13;;
55082;SDS011;40978;52.850;6.506;2024-02-04T15:00:31;1.95;;;0.85;;